Latest Weather Observations for Viewbank

IDV60901

Issued at 9:05 am EDT Monday 24 November 2014 (issued every 10 minutes, with the page automatically refreshed every 10 minutes)

About weather observations | Map of Melbourne area stations | Latest observations for Melbourne area | Other Formats
Station Details ID: 086068 Name: VIEWBANK Lat: -37.74 Lon: 145.10 Height: 66.1 m
Data from the previous 72 hours. | See also: Recent months at Viewbank
Date/Time
EDT
Tmp

°C
App
Tmp
°C
Dew
Point
°C
Rel
Hum
%
Delta-T

°C
Wind Press
QNH
hPa
Press
MSL
hPa
Rain
since
9 am
mm
Dir
 
Spd
km/h
Gust
km/h
Spd
kts
Gust
kts
24/09:00am 18.2 16.5 13.5 74 2.7 SW 15 19 8 10 1009.3 1009.2 0.2
24/08:37am 15.3 11.1 14.7 96 0.3 WSW 30 48 16 26 1009.2 1009.1 0.2
24/08:30am 15.5 16.5 14.2 92 0.7 NE 2 6 1 3 1007.5 1007.4 0.2
24/08:00am 14.9 14.6 13.4 91 0.8 NNE 7 11 4 6 1007.6 1007.5 0.2
24/07:30am 14.9 14.3 12.4 85 1.4 NE 7 13 4 7 1007.7 1007.6 0.0
24/07:00am 14.5 14.1 13.0 91 0.8 NE 7 13 4 7 1008.2 1008.1 0.0
24/06:30am 14.2 13.8 12.9 92 0.7 NE 7 15 4 8 1008.5 1008.4 0.0
24/06:00am 13.4 12.7 12.1 92 0.7 WSW 7 9 4 5 1008.9 1008.8 0.0
24/05:30am 13.4 13.9 11.5 88 1.0 CALM 0 4 0 2 1008.4 1008.3 0.0
24/05:00am 13.7 13.8 11.4 86 1.2 NNE 2 6 1 3 1008.4 1008.3 0.0
24/04:30am 13.8 14.2 11.3 85 1.3 CALM 0 6 0 3 1008.5 1008.4 0.0
24/04:00am 13.9 13.8 10.9 82 1.6 NNE 2 7 1 4 1008.9 1008.8 0.0
24/03:30am 14.3 14.7 11.1 81 1.7 CALM 0 0 0 0 1009.1 1009.0 0.0
24/03:00am 14.5 14.7 10.5 77 2.1 CALM 0 0 0 0 1009.8 1009.7 0.0
24/02:30am 14.8 15.0 10.4 75 2.3 CALM 0 0 0 0 1010.3 1010.2 0.0
24/02:00am 15.1 15.2 10.1 72 2.6 CALM 0 0 0 0 1010.6 1010.5 0.0
24/01:30am 15.3 14.6 10.1 71 2.7 WSW 4 7 2 4 1011.0 1010.9 0.0
24/01:00am 15.9 16.0 10.2 69 3.0 CALM 0 0 0 0 1011.9 1011.8 0.0
24/12:30am 16.5 16.2 10.1 66 3.4 WSW 2 7 1 4 1012.8 1012.6 0.0
24/12:00am 16.6 15.3 10.0 65 3.5 WSW 7 9 4 5 1012.8 1012.6 0.0
 
Date/Time
EDT
Tmp

°C
App
Tmp
°C
Dew
Point
°C
Rel
Hum
%
Delta-T

°C
Wind Press
QNH
hPa
Press
MSL
hPa
Rain
since
9 am
mm
Dir
 
Spd
km/h
Gust
km/h
Spd
kts
Gust
kts
23/11:30pm 17.0 15.6 9.7 62 3.8 SW 7 13 4 7 1012.8 1012.6 0.0
23/11:00pm 17.5 16.1 9.7 60 4.1 WSW 7 11 4 6 1013.4 1013.2 0.0
23/10:30pm 17.9 16.7 10.3 61 4.1 SW 7 11 4 6 1013.8 1013.6 0.0
23/10:00pm 18.1 16.8 10.0 59 4.3 SW 7 11 4 6 1013.4 1013.2 0.0
23/09:30pm 18.1 17.0 10.0 59 4.3 S 6 9 3 5 1012.9 1012.7 0.0
23/09:00pm 18.4 17.1 10.0 58 4.5 S 7 13 4 7 1012.8 1012.6 0.0
23/08:30pm 18.9 17.7 10.2 57 4.7 SSW 7 11 4 6 1013.2 1013.0 0.0
23/08:00pm 19.2 17.6 10.2 56 4.8 SSE 9 17 5 9 1012.7 1012.5 0.0
23/07:30pm 20.0 18.5 10.7 55 5.1 S 9 15 5 8 1012.8 1012.6 0.0
23/07:00pm 20.8 18.7 11.2 54 5.3 SE 13 24 7 13 1012.6 1012.4 0.0
23/06:30pm 22.1 20.9 11.5 51 5.9 SSE 9 13 5 7 1012.3 1012.1 0.0
23/06:00pm 22.8 20.7 11.2 48 6.5 S 13 22 7 12 1011.7 1011.6 0.0
23/05:30pm 23.4 21.4 11.5 47 6.7 S 13 20 7 11 1011.6 1011.5 0.0
23/05:00pm 24.9 22.1 12.5 46 7.2 S 19 22 10 12 1011.1 1011.0 0.0
23/04:30pm 25.0 21.5 12.2 44 7.3 SSW 22 33 12 18 1010.8 1010.7 0.0
23/04:00pm 23.9 21.4 12.2 48 6.7 S 17 28 9 15 1010.4 1010.3 0.0
23/03:30pm 25.3 22.3 12.5 45 7.4 SSW 20 33 11 18 1010.1 1010.0 0.0
23/03:00pm 26.1 23.7 12.5 42 7.9 S 17 26 9 14 1009.9 1009.8 0.0
23/02:30pm 25.8 23.5 13.0 45 7.5 S 17 30 9 16 1009.9 1009.8 0.0
23/02:00pm 25.6 23.4 14.4 50 6.7 SW 19 28 10 15 1009.9 1009.8 0.0
23/01:30pm 25.7 24.2 15.4 53 6.3 SW 17 26 9 14 1010.2 1010.1 0.0
23/01:00pm 25.8 24.9 14.9 51 6.6 SSW 13 24 7 13 1010.4 1010.3 0.0
23/12:30pm 24.3 23.1 14.1 53 6.0 SW 13 20 7 11 1010.7 1010.6 0.0
23/12:00pm 24.3 24.1 14.7 55 5.7 SW 9 17 5 9 1011.1 1011.0 0.0
23/11:30am 23.2 23.2 14.2 57 5.3 SSW 7 11 4 6 1011.4 1011.3 0.0
23/11:00am 22.5 22.4 13.8 58 5.1 S 7 13 4 7 1011.7 1011.6 0.0
23/10:30am 21.3 21.0 12.7 58 4.9 E 6 11 3 6 1012.1 1012.0 0.0
23/10:00am 20.9 20.8 13.8 64 4.1 S 7 11 4 6 1012.5 1012.3 0.0
23/09:30am 19.7 19.8 13.9 69 3.3 W 6 13 3 7 1012.7 1012.5 0.0
23/09:00am 19.1 19.3 14.1 73 2.9 W 6 11 3 6 1012.7 1012.5 0.4
23/08:30am 18.0 18.1 13.9 77 2.3 WSW 6 7 3 4 1012.6 1012.4 0.4
23/08:00am 17.6 18.1 14.1 80 2.0 SW 4 7 2 4 1012.3 1012.1 0.4
23/07:30am 17.1 17.4 14.4 84 1.6 S 6 6 3 3 1012.3 1012.1 0.4
23/07:00am 16.3 17.7 14.3 88 1.1 CALM 0 0 0 0 1011.8 1011.7 0.4
23/06:30am 15.8 16.9 13.6 87 1.2 CALM 0 4 0 2 1011.6 1011.5 0.4
23/06:00am 15.8 15.8 13.5 86 1.3 S 6 9 3 5 1011.5 1011.4 0.4
23/05:30am 16.1 16.7 13.2 83 1.6 SSW 2 7 1 4 1011.4 1011.3 0.4
23/05:00am 16.4 16.4 13.7 84 1.5 SW 6 9 3 5 1011.4 1011.3 0.4
23/04:30am 16.5 16.9 14.7 89 1.0 SW 6 9 3 5 1011.3 1011.2 0.4
23/04:00am 16.6 17.8 15.0 90 0.9 SW 2 7 1 4 1010.6 1010.5 0.4
23/03:30am 16.8 17.0 14.8 88 1.2 WSW 7 9 4 5 1010.1 1010.0 0.2
23/03:00am 17.0 16.5 13.9 82 1.8 SW 9 19 5 10 1009.9 1009.8 0.2
23/02:30am 17.3 17.0 13.2 77 2.3 S 7 13 4 7 1010.0 1009.9 0.0
23/02:00am 17.7 18.3 13.0 74 2.6 SSW 2 7 1 4 1010.0 1009.9 0.0
23/01:30am 17.9 17.4 12.8 72 2.9 SSW 7 9 4 5 1009.8 1009.7 0.0
23/01:00am 18.4 19.2 12.6 69 3.3 CALM 0 6 0 3 1010.0 1009.9 0.0
23/12:30am 18.7 17.8 12.5 67 3.5 SW 9 13 5 7 1009.7 1009.6 0.0
23/12:00am 19.3 18.2 11.8 62 4.2 SW 9 13 5 7 1009.4 1009.3 0.0
 
Date/Time
EDT
Tmp

°C
App
Tmp
°C
Dew
Point
°C
Rel
Hum
%
Delta-T

°C
Wind Press
QNH
hPa
Press
MSL
hPa
Rain
since
9 am
mm
Dir
 
Spd
km/h
Gust
km/h
Spd
kts
Gust
kts
22/11:30pm 19.7 18.5 11.5 59 4.5 SSW 9 17 5 9 1009.2 1009.1 0.0
22/11:00pm 21.0 18.1 11.1 53 5.5 SSW 17 24 9 13 1009.0 1008.9 0.0
22/10:30pm 24.9 22.9 11.5 43 7.6 NNW 13 22 7 12 1008.5 1008.4 0.0
22/10:00pm 25.7 22.1 10.7 39 8.4 N 20 33 11 18 1007.7 1007.6 0.0
22/09:30pm 26.5 22.7 9.8 35 9.3 N 20 35 11 19 1007.0 1006.9 0.0
22/09:00pm 27.2 24.0 8.6 31 10.2 NNW 15 24 8 13 1006.7 1006.6 0.0
22/08:30pm 28.1 23.9 8.4 29 10.8 NW 20 33 11 18 1006.5 1006.4 0.0
22/08:00pm 28.9 24.7 7.5 26 11.6 NNW 19 32 10 17 1006.0 1005.9 0.0
22/07:30pm 29.3 24.5 7.2 25 11.9 N 22 44 12 24 1005.4 1005.3 0.0
22/07:00pm 28.9 25.9 7.5 26 11.6 N 13 22 7 12 1005.6 1005.5 0.0
22/06:30pm 29.3 25.4 7.2 25 11.9 NNW 17 33 9 18 1005.9 1005.8 0.0
22/06:00pm 29.5 25.0 6.8 24 12.2 N 20 37 11 20 1005.8 1005.7 0.0
22/05:30pm 29.8 25.1 7.7 25 12.0 N 22 39 12 21 1005.6 1005.5 0.0
22/05:00pm 30.0 24.4 7.2 24 12.4 N 26 46 14 25 1006.0 1005.9 0.0
22/04:30pm 29.8 23.8 7.1 24 12.3 N 28 52 15 28 1006.1 1006.0 0.0
22/04:12pm 30.1 24.2 7.3 24 12.4 N 28 48 15 26 1006.1 1006.0 0.0
22/04:00pm 30.1 25.7 7.3 24 12.4 N 20 33 11 18 1006.3 1006.2 0.0
22/03:30pm 29.1 24.8 7.1 25 11.8 N 19 33 10 18 1007.1 1007.0 0.0
22/03:00pm 28.5 24.6 8.7 29 10.9 N 19 33 10 18 1008.0 1007.9 0.0
22/02:30pm 27.1 23.3 7.5 29 10.5 N 17 30 9 16 1007.9 1007.8 0.0
22/02:00pm 27.0 23.2 7.5 29 10.5 N 17 30 9 16 1007.9 1007.8 0.0
22/01:30pm 26.0 22.6 7.6 31 9.8 N 15 28 8 15 1008.6 1008.5 0.0
22/01:00pm 24.9 22.2 8.8 36 8.7 NNE 13 22 7 12 1008.7 1008.6 0.0
22/12:37pm 23.2 19.7 7.3 36 8.3 NE 15 24 8 13 1008.9 1008.8 0.0
22/12:30pm 23.5 19.2 7.2 35 8.5 N 19 30 10 16 1010.9 1010.8 0.0
22/12:00pm 24.4 20.4 6.6 32 9.2 NW 17 26 9 14 1011.6 1011.5 0.0
22/11:30am 21.9 21.4 13.8 60 4.7 NE 9 20 5 11 1010.6 1010.5 0.0
22/11:00am 20.2 19.0 13.9 67 3.6 E 13 26 7 14 1010.3 1010.2 0.0
22/10:30am 18.9 18.7 13.5 71 3.1 ENE 7 11 4 6 1010.6 1010.5 0.0
22/10:00am 17.3 16.2 13.2 77 2.3 ENE 11 15 6 8 1010.9 1010.8 0.0
22/09:30am 16.2 15.9 12.6 79 2.0 E 6 9 3 5 1011.6 1011.5 0.0
22/09:00am 15.4 15.1 12.7 84 1.5 E 6 9 3 5 1011.3 1011.2 0.0
22/08:30am 14.9 15.7 12.6 86 1.3 CALM 0 0 0 0 1011.5 1011.4 0.0
22/08:00am 13.6 13.2 12.5 93 0.6 ENE 6 7 3 4 1011.0 1010.9 0.0
22/07:30am 13.5 13.2 13.2 98 0.2 ENE 7 11 4 6 1011.0 1010.9 0.0
22/07:00am 11.8 11.5 11.6 99 0.1 ENE 4 7 2 4 1010.6 1010.5 0.0
22/06:30am 11.1 10.6 10.9 99 0.1 NE 4 9 2 5 1010.2 1010.1 0.0
22/06:00am 11.0 10.5 10.8 99 0.1 NE 4 6 2 3 1010.2 1010.1 0.0
22/05:30am 11.4 11.0 11.2 99 0.1 NE 4 7 2 4 1010.4 1010.3 0.0
22/05:00am 11.5 11.2 11.3 99 0.1 NE 4 6 2 3 1010.2 1010.1 0.0
22/04:30am 11.8 11.9 11.6 99 0.1 NE 2 7 1 4 1010.1 1010.0 0.0
22/04:00am 12.2 12.0 11.7 97 0.3 NNE 4 6 2 3 1010.1 1010.0 0.0
22/03:30am 12.5 11.8 11.9 96 0.3 N 7 9 4 5 1010.0 1009.9 0.0
22/03:00am 13.0 12.4 11.7 92 0.7 N 6 7 3 4 1010.3 1010.2 0.0
22/02:30am 13.3 12.7 11.7 90 0.9 NNW 6 9 3 5 1010.8 1010.7 0.0
22/02:00am 13.6 13.0 11.8 89 1.0 W 6 9 3 5 1011.0 1010.9 0.0
22/01:30am 13.8 13.1 12.0 89 1.0 NW 7 11 4 6 1011.4 1011.3 0.0
22/01:00am 14.1 14.1 12.5 90 0.9 WNW 4 7 2 4 1011.4 1011.3 0.0
22/12:30am 14.4 14.6 11.9 85 1.4 W 2 6 1 3 1011.9 1011.8 0.0
22/12:00am 14.8 14.6 11.9 83 1.6 SW 4 6 2 3 1012.4 1012.2 0.0
 
Date/Time
EDT
Tmp

°C
App
Tmp
°C
Dew
Point
°C
Rel
Hum
%
Delta-T

°C
Wind Press
QNH
hPa
Press
MSL
hPa
Rain
since
9 am
mm
Dir
 
Spd
km/h
Gust
km/h
Spd
kts
Gust
kts
21/11:30pm 15.0 15.2 12.0 82 1.6 SW 2 6 1 3 1012.5 1012.3 0.0
21/11:00pm 15.5 15.0 11.9 79 2.0 SW 6 9 3 5 1012.6 1012.4 0.0
21/10:30pm 16.0 16.5 11.6 75 2.4 CALM 0 0 0 0 1012.5 1012.3 0.0
21/10:00pm 16.6 16.0 11.7 73 2.7 S 6 9 3 5 1012.3 1012.1 0.0
21/09:30pm 17.6 17.0 11.8 69 3.2 S 6 9 3 5 1012.4 1012.2 0.0
21/09:00pm 18.1 17.2 11.4 65 3.7 S 7 9 4 5 1011.9 1011.8 0.0
21/08:30pm 19.1 18.1 10.9 59 4.5 S 7 11 4 6 1011.6 1011.5 0.0
21/08:00pm 20.3 18.1 7.7 44 6.5 S 9 15 5 8 1011.2 1011.1 0.0
21/07:30pm 21.4 18.8 7.6 41 7.2 S 11 19 6 10 1011.0 1010.9 0.0
21/07:00pm 22.2 19.7 8.3 41 7.3 S 11 15 6 8 1010.6 1010.5 0.0
21/06:30pm 22.8 20.0 8.5 40 7.6 S 13 22 7 12 1010.3 1010.2 0.0
21/06:00pm 23.4 21.2 7.9 37 8.2 S 9 17 5 9 1010.1 1010.0 0.0
21/05:30pm 23.4 20.4 7.5 36 8.3 SSW 13 20 7 11 1010.1 1010.0 0.0
21/05:00pm 22.9 19.9 6.2 34 8.5 S 11 17 6 9 1010.1 1010.0 0.0
21/04:30pm 24.0 21.9 8.4 37 8.3 S 9 15 5 8 1010.3 1010.2 0.0
21/04:00pm 23.3 20.8 8.2 38 8.0 S 11 22 6 12 1010.6 1010.5 0.0
21/03:30pm 23.1 21.2 9.1 41 7.5 SSW 9 17 5 9 1010.7 1010.6 0.0
21/03:00pm 22.5 20.4 8.2 40 7.6 SW 9 17 5 9 1010.9 1010.8 0.0
21/02:30pm 21.8 20.2 8.7 43 7.0 S 7 15 4 8 1011.0 1010.9 0.0
21/02:00pm 21.9 19.1 8.4 42 7.1 SW 13 20 7 11 1011.2 1011.1 0.0
21/01:30pm 21.0 19.5 9.3 47 6.3 NNW 7 17 4 9 1011.4 1011.3 0.0
21/01:00pm 21.8 19.7 11.2 51 5.9 SSW 13 20 7 11 1011.5 1011.4 0.0
21/12:30pm 20.5 18.6 10.6 53 5.4 S 11 20 6 11 1011.5 1011.4 0.0
21/12:00pm 19.1 16.1 9.3 53 5.2 SSW 15 24 8 13 1011.6 1011.5 0.0
21/11:30am 17.9 14.3 9.8 59 4.3 SSW 19 26 10 14 1011.8 1011.7 0.0
21/11:00am 18.9 17.3 11.5 62 4.1 WSW 11 19 6 10 1011.7 1011.6 0.0
21/10:30am 18.2 16.5 11.3 64 3.8 WSW 11 20 6 11 1011.3 1011.2 0.0
21/10:00am 17.7 15.4 11.7 68 3.3 SW 15 26 8 14 1011.1 1011.0 0.0
21/09:30am 17.0 14.1 11.1 68 3.2 SW 17 26 9 14 1011.3 1011.2 0.0

Latest Capital City Observations: Canberra | Sydney | Melbourne | Brisbane | Adelaide | Perth | Hobart | Darwin

Other Formats:

Comma delimited format used in spreadsheet applications
http://www.bom.gov.au/fwo/IDV60901/IDV60901.95874.axf

JavaScript Object Notation format (JSON) in row-major order
http://www.bom.gov.au/fwo/IDV60901/IDV60901.95874.json